sensor_id;sensor_type;location;lat;lon;timestamp;P1;durP1;ratioP1;P2;durP2;ratioP2
24485;SDS011;13449;49.374;8.584;2024-03-22T00:00:32;6.65;;;3.63;;
24485;SDS011;13449;49.374;8.584;2024-03-22T00:03:00;6.50;;;3.78;;
24485;SDS011;13449;49.374;8.584;2024-03-22T00:05:27;6.90;;;3.63;;
24485;SDS011;13449;49.374;8.584;2024-03-22T00:07:52;5.57;;;2.88;;
24485;SDS011;13449;49.374;8.584;2024-03-22T00:10:18;3.78;;;3.03;;
24485;SDS011;13449;49.374;8.584;2024-03-22T00:12:43;5.50;;;3.40;;
24485;SDS011;13449;49.374;8.584;2024-03-22T00:15:09;15.10;;;4.07;;
24485;SDS011;13449;49.374;8.584;2024-03-22T00:17:37;10.55;;;3.53;;
24485;SDS011;13449;49.374;8.584;2024-03-22T00:20:04;10.05;;;3.42;;
24485;SDS011;13449;49.374;8.584;2024-03-22T00:22:30;5.75;;;3.60;;
24485;SDS011;13449;49.374;8.584;2024-03-22T00:24:56;4.55;;;3.50;;
24485;SDS011;13449;49.374;8.584;2024-03-22T00:27:22;8.35;;;4.18;;
24485;SDS011;13449;49.374;8.584;2024-03-22T00:29:47;4.63;;;3.10;;
24485;SDS011;13449;49.374;8.584;2024-03-22T00:32:13;9.23;;;4.43;;
24485;SDS011;13449;49.374;8.584;2024-03-22T00:34:39;10.10;;;4.57;;
24485;SDS011;13449;49.374;8.584;2024-03-22T00:37:04;13.70;;;5.15;;
24485;SDS011;13449;49.374;8.584;2024-03-22T00:39:30;4.78;;;3.30;;
24485;SDS011;13449;49.374;8.584;2024-03-22T00:41:55;7.35;;;3.55;;
24485;SDS011;13449;49.374;8.584;2024-03-22T00:44:21;6.80;;;4.07;;
24485;SDS011;13449;49.374;8.584;2024-03-22T00:46:46;9.80;;;3.15;;
24485;SDS011;13449;49.374;8.584;2024-03-22T00:49:12;10.65;;;4.18;;
24485;SDS011;13449;49.374;8.584;2024-03-22T00:51:40;5.57;;;3.97;;
24485;SDS011;13449;49.374;8.584;2024-03-22T00:54:08;7.38;;;4.13;;
24485;SDS011;13449;49.374;8.584;2024-03-22T00:56:39;4.25;;;3.30;;
24485;SDS011;13449;49.374;8.584;2024-03-22T00:59:05;9.30;;;3.67;;
24485;SDS011;13449;49.374;8.584;2024-03-22T01:01:48;6.05;;;3.67;;
24485;SDS011;13449;49.374;8.584;2024-03-22T01:04:17;8.18;;;4.07;;
24485;SDS011;13449;49.374;8.584;2024-03-22T01:06:43;7.70;;;3.67;;
24485;SDS011;13449;49.374;8.584;2024-03-22T01:09:09;7.88;;;3.88;;
24485;SDS011;13449;49.374;8.584;2024-03-22T01:11:34;7.13;;;3.78;;
24485;SDS011;13449;49.374;8.584;2024-03-22T01:14:02;7.55;;;3.92;;
24485;SDS011;13449;49.374;8.584;2024-03-22T01:16:28;8.50;;;4.80;;
24485;SDS011;13449;49.374;8.584;2024-03-22T01:18:53;5.20;;;3.50;;
24485;SDS011;13449;49.374;8.584;2024-03-22T01:21:23;7.97;;;4.18;;
24485;SDS011;13449;49.374;8.584;2024-03-22T01:23:53;6.07;;;3.60;;
24485;SDS011;13449;49.374;8.584;2024-03-22T01:26:19;6.18;;;3.85;;
24485;SDS011;13449;49.374;8.584;2024-03-22T01:28:44;8.23;;;4.35;;
24485;SDS011;13449;49.374;8.584;2024-03-22T01:31:11;6.30;;;3.80;;
24485;SDS011;13449;49.374;8.584;2024-03-22T01:33:37;5.93;;;3.20;;
24485;SDS011;13449;49.374;8.584;2024-03-22T01:36:03;9.73;;;4.03;;
24485;SDS011;13449;49.374;8.584;2024-03-22T01:38:32;11.73;;;4.35;;
24485;SDS011;13449;49.374;8.584;2024-03-22T01:40:58;7.88;;;3.55;;
24485;SDS011;13449;49.374;8.584;2024-03-22T01:43:23;4.78;;;3.17;;
24485;SDS011;13449;49.374;8.584;2024-03-22T01:45:55;8.45;;;4.05;;
24485;SDS011;13449;49.374;8.584;2024-03-22T01:48:21;11.00;;;3.05;;
24485;SDS011;13449;49.374;8.584;2024-03-22T01:50:47;7.75;;;3.88;;
24485;SDS011;13449;49.374;8.584;2024-03-22T01:53:12;9.82;;;3.80;;
24485;SDS011;13449;49.374;8.584;2024-03-22T01:55:38;6.70;;;3.60;;
24485;SDS011;13449;49.374;8.584;2024-03-22T01:58:06;8.10;;;3.50;;
24485;SDS011;13449;49.374;8.584;2024-03-22T02:00:38;5.10;;;3.53;;
24485;SDS011;13449;49.374;8.584;2024-03-22T02:03:04;10.52;;;3.95;;
24485;SDS011;13449;49.374;8.584;2024-03-22T02:05:29;5.47;;;3.55;;
24485;SDS011;13449;49.374;8.584;2024-03-22T02:07:55;5.32;;;4.00;;
24485;SDS011;13449;49.374;8.584;2024-03-22T02:10:21;7.20;;;4.10;;
24485;SDS011;13449;49.374;8.584;2024-03-22T02:12:47;6.85;;;3.88;;
24485;SDS011;13449;49.374;8.584;2024-03-22T02:15:18;7.13;;;3.85;;
24485;SDS011;13449;49.374;8.584;2024-03-22T02:17:44;7.20;;;3.70;;
24485;SDS011;13449;49.374;8.584;2024-03-22T02:20:09;7.45;;;2.83;;
24485;SDS011;13449;49.374;8.584;2024-03-22T02:22:38;6.45;;;3.95;;
24485;SDS011;13449;49.374;8.584;2024-03-22T02:25:06;7.10;;;3.45;;
24485;SDS011;13449;49.374;8.584;2024-03-22T02:27:34;6.63;;;3.60;;
24485;SDS011;13449;49.374;8.584;2024-03-22T02:30:03;8.45;;;4.05;;
24485;SDS011;13449;49.374;8.584;2024-03-22T02:32:29;11.85;;;4.20;;
24485;SDS011;13449;49.374;8.584;2024-03-22T02:34:56;6.72;;;3.38;;
24485;SDS011;13449;49.374;8.584;2024-03-22T02:37:25;7.32;;;3.40;;
24485;SDS011;13449;49.374;8.584;2024-03-22T02:39:51;10.63;;;5.03;;
24485;SDS011;13449;49.374;8.584;2024-03-22T02:42:16;8.13;;;4.75;;
24485;SDS011;13449;49.374;8.584;2024-03-22T02:44:42;7.25;;;4.35;;
24485;SDS011;13449;49.374;8.584;2024-03-22T02:47:09;9.02;;;5.05;;
24485;SDS011;13449;49.374;8.584;2024-03-22T02:49:35;9.02;;;4.63;;
24485;SDS011;13449;49.374;8.584;2024-03-22T02:52:02;8.25;;;4.53;;
24485;SDS011;13449;49.374;8.584;2024-03-22T02:54:28;10.98;;;4.13;;
24485;SDS011;13449;49.374;8.584;2024-03-22T02:56:58;8.05;;;4.20;;
24485;SDS011;13449;49.374;8.584;2024-03-22T02:59:28;11.50;;;5.28;;
24485;SDS011;13449;49.374;8.584;2024-03-22T03:01:54;7.72;;;4.93;;
24485;SDS011;13449;49.374;8.584;2024-03-22T03:04:19;10.65;;;5.75;;
24485;SDS011;13449;49.374;8.584;2024-03-22T03:06:45;9.60;;;4.50;;
24485;SDS011;13449;49.374;8.584;2024-03-22T03:09:11;7.47;;;4.43;;
24485;SDS011;13449;49.374;8.584;2024-03-22T03:11:40;10.55;;;5.22;;
24485;SDS011;13449;49.374;8.584;2024-03-22T03:14:05;9.50;;;5.55;;
24485;SDS011;13449;49.374;8.584;2024-03-22T03:16:31;14.35;;;5.68;;
24485;SDS011;13449;49.374;8.584;2024-03-22T03:18:57;13.48;;;5.60;;
24485;SDS011;13449;49.374;8.584;2024-03-22T03:21:23;10.05;;;5.10;;
24485;SDS011;13449;49.374;8.584;2024-03-22T03:23:51;13.52;;;5.53;;
24485;SDS011;13449;49.374;8.584;2024-03-22T03:26:17;11.40;;;5.47;;
24485;SDS011;13449;49.374;8.584;2024-03-22T03:28:42;11.52;;;4.68;;
24485;SDS011;13449;49.374;8.584;2024-03-22T03:31:08;10.95;;;4.90;;
24485;SDS011;13449;49.374;8.584;2024-03-22T03:33:33;12.40;;;5.70;;
24485;SDS011;13449;49.374;8.584;2024-03-22T03:36:01;7.45;;;4.25;;
24485;SDS011;13449;49.374;8.584;2024-03-22T03:38:31;10.98;;;4.78;;
24485;SDS011;13449;49.374;8.584;2024-03-22T03:40:57;9.45;;;5.07;;
24485;SDS011;13449;49.374;8.584;2024-03-22T03:43:25;6.85;;;3.83;;
24485;SDS011;13449;49.374;8.584;2024-03-22T03:45:50;8.20;;;4.15;;
24485;SDS011;13449;49.374;8.584;2024-03-22T03:48:16;7.63;;;4.00;;
24485;SDS011;13449;49.374;8.584;2024-03-22T03:50:50;15.45;;;4.68;;
24485;SDS011;13449;49.374;8.584;2024-03-22T03:53:19;11.63;;;4.70;;
24485;SDS011;13449;49.374;8.584;2024-03-22T03:55:45;10.63;;;4.60;;
24485;SDS011;13449;49.374;8.584;2024-03-22T03:58:11;7.90;;;4.90;;
24485;SDS011;13449;49.374;8.584;2024-03-22T04:00:37;11.05;;;4.55;;
24485;SDS011;13449;49.374;8.584;2024-03-22T04:03:05;14.95;;;5.57;;
24485;SDS011;13449;49.374;8.584;2024-03-22T04:05:32;8.82;;;4.50;;
24485;SDS011;13449;49.374;8.584;2024-03-22T04:07:58;8.68;;;4.63;;
24485;SDS011;13449;49.374;8.584;2024-03-22T04:10:25;10.00;;;5.07;;
24485;SDS011;13449;49.374;8.584;2024-03-22T04:12:50;9.65;;;4.38;;
24485;SDS011;13449;49.374;8.584;2024-03-22T04:15:16;8.63;;;3.95;;
24485;SDS011;13449;49.374;8.584;2024-03-22T04:17:41;6.63;;;3.95;;
24485;SDS011;13449;49.374;8.584;2024-03-22T04:20:09;8.07;;;4.50;;
24485;SDS011;13449;49.374;8.584;2024-03-22T04:22:36;8.15;;;5.05;;
24485;SDS011;13449;49.374;8.584;2024-03-22T04:25:04;8.98;;;4.82;;
24485;SDS011;13449;49.374;8.584;2024-03-22T04:27:30;5.97;;;4.25;;
24485;SDS011;13449;49.374;8.584;2024-03-22T04:29:58;8.73;;;4.45;;
24485;SDS011;13449;49.374;8.584;2024-03-22T04:32:25;7.10;;;4.18;;
24485;SDS011;13449;49.374;8.584;2024-03-22T04:34:51;12.27;;;4.30;;
24485;SDS011;13449;49.374;8.584;2024-03-22T04:37:17;8.63;;;4.40;;
24485;SDS011;13449;49.374;8.584;2024-03-22T04:39:45;11.88;;;4.90;;
24485;SDS011;13449;49.374;8.584;2024-03-22T04:42:13;11.27;;;5.88;;
24485;SDS011;13449;49.374;8.584;2024-03-22T04:44:38;12.43;;;6.03;;
24485;SDS011;13449;49.374;8.584;2024-03-22T04:47:05;11.68;;;6.50;;
24485;SDS011;13449;49.374;8.584;2024-03-22T04:49:30;8.25;;;5.03;;
24485;SDS011;13449;49.374;8.584;2024-03-22T04:51:56;9.48;;;5.55;;
24485;SDS011;13449;49.374;8.584;2024-03-22T04:54:22;10.30;;;5.43;;
24485;SDS011;13449;49.374;8.584;2024-03-22T04:56:47;9.35;;;5.32;;
24485;SDS011;13449;49.374;8.584;2024-03-22T04:59:13;5.15;;;3.80;;
24485;SDS011;13449;49.374;8.584;2024-03-22T05:01:38;7.32;;;4.75;;
24485;SDS011;13449;49.374;8.584;2024-03-22T05:04:04;11.05;;;4.68;;
24485;SDS011;13449;49.374;8.584;2024-03-22T05:06:32;13.13;;;4.60;;
24485;SDS011;13449;49.374;8.584;2024-03-22T05:08:57;10.10;;;4.28;;
24485;SDS011;13449;49.374;8.584;2024-03-22T05:11:25;8.70;;;5.28;;
24485;SDS011;13449;49.374;8.584;2024-03-22T05:13:51;8.30;;;4.80;;
24485;SDS011;13449;49.374;8.584;2024-03-22T05:16:16;6.85;;;4.25;;
24485;SDS011;13449;49.374;8.584;2024-03-22T05:18:42;11.70;;;4.45;;
24485;SDS011;13449;49.374;8.584;2024-03-22T05:21:08;7.85;;;4.15;;
24485;SDS011;13449;49.374;8.584;2024-03-22T05:23:34;9.25;;;5.45;;
24485;SDS011;13449;49.374;8.584;2024-03-22T05:25:59;10.70;;;4.60;;
24485;SDS011;13449;49.374;8.584;2024-03-22T05:28:25;17.55;;;5.20;;
24485;SDS011;13449;49.374;8.584;2024-03-22T05:30:51;9.32;;;5.05;;
24485;SDS011;13449;49.374;8.584;2024-03-22T05:33:16;6.18;;;4.40;;
24485;SDS011;13449;49.374;8.584;2024-03-22T05:35:42;7.93;;;4.43;;
24485;SDS011;13449;49.374;8.584;2024-03-22T05:38:09;6.00;;;4.32;;
24485;SDS011;13449;49.374;8.584;2024-03-22T05:40:37;8.10;;;4.75;;
24485;SDS011;13449;49.374;8.584;2024-03-22T05:43:03;7.40;;;4.78;;
24485;SDS011;13449;49.374;8.584;2024-03-22T05:45:29;12.35;;;4.68;;
24485;SDS011;13449;49.374;8.584;2024-03-22T05:47:55;11.95;;;5.38;;
24485;SDS011;13449;49.374;8.584;2024-03-22T05:50:21;5.82;;;3.70;;
24485;SDS011;13449;49.374;8.584;2024-03-22T05:52:48;10.10;;;4.75;;
24485;SDS011;13449;49.374;8.584;2024-03-22T05:55:13;5.53;;;4.20;;
24485;SDS011;13449;49.374;8.584;2024-03-22T05:57:39;11.65;;;4.55;;
24485;SDS011;13449;49.374;8.584;2024-03-22T06:00:05;6.20;;;3.95;;
24485;SDS011;13449;49.374;8.584;2024-03-22T06:02:32;6.15;;;3.88;;
24485;SDS011;13449;49.374;8.584;2024-03-22T06:04:58;8.13;;;4.95;;
24485;SDS011;13449;49.374;8.584;2024-03-22T06:07:25;8.18;;;4.68;;
24485;SDS011;13449;49.374;8.584;2024-03-22T06:09:51;10.90;;;5.15;;
24485;SDS011;13449;49.374;8.584;2024-03-22T06:12:17;12.70;;;5.90;;
24485;SDS011;13449;49.374;8.584;2024-03-22T06:14:44;11.95;;;6.25;;
24485;SDS011;13449;49.374;8.584;2024-03-22T06:17:10;9.20;;;5.00;;
24485;SDS011;13449;49.374;8.584;2024-03-22T06:19:36;12.57;;;6.57;;
24485;SDS011;13449;49.374;8.584;2024-03-22T06:22:02;11.20;;;5.32;;
24485;SDS011;13449;49.374;8.584;2024-03-22T06:24:31;7.97;;;4.80;;
24485;SDS011;13449;49.374;8.584;2024-03-22T06:26:59;13.07;;;5.43;;
24485;SDS011;13449;49.374;8.584;2024-03-22T06:29:25;11.32;;;5.45;;
24485;SDS011;13449;49.374;8.584;2024-03-22T06:31:53;7.00;;;4.32;;
24485;SDS011;13449;49.374;8.584;2024-03-22T06:34:19;8.57;;;5.05;;
24485;SDS011;13449;49.374;8.584;2024-03-22T06:36:45;8.98;;;5.47;;
24485;SDS011;13449;49.374;8.584;2024-03-22T06:39:10;6.45;;;4.70;;
24485;SDS011;13449;49.374;8.584;2024-03-22T06:41:36;11.00;;;5.78;;
24485;SDS011;13449;49.374;8.584;2024-03-22T06:44:04;7.35;;;5.05;;
24485;SDS011;13449;49.374;8.584;2024-03-22T06:46:30;9.77;;;5.25;;
24485;SDS011;13449;49.374;8.584;2024-03-22T06:48:58;7.30;;;4.10;;
24485;SDS011;13449;49.374;8.584;2024-03-22T06:51:26;10.75;;;5.50;;
24485;SDS011;13449;49.374;8.584;2024-03-22T06:53:51;14.55;;;6.18;;
24485;SDS011;13449;49.374;8.584;2024-03-22T06:56:17;11.55;;;5.95;;
24485;SDS011;13449;49.374;8.584;2024-03-22T06:58:44;9.48;;;4.82;;
24485;SDS011;13449;49.374;8.584;2024-03-22T07:01:09;11.25;;;5.32;;
24485;SDS011;13449;49.374;8.584;2024-03-22T07:03:35;12.20;;;6.13;;
24485;SDS011;13449;49.374;8.584;2024-03-22T07:06:05;12.88;;;5.82;;
24485;SDS011;13449;49.374;8.584;2024-03-22T07:08:33;10.93;;;5.25;;
24485;SDS011;13449;49.374;8.584;2024-03-22T07:10:59;10.50;;;6.10;;
24485;SDS011;13449;49.374;8.584;2024-03-22T07:13:25;10.70;;;6.13;;
24485;SDS011;13449;49.374;8.584;2024-03-22T07:15:53;11.95;;;6.22;;
24485;SDS011;13449;49.374;8.584;2024-03-22T07:18:19;11.50;;;6.85;;
24485;SDS011;13449;49.374;8.584;2024-03-22T07:20:45;9.70;;;5.30;;
24485;SDS011;13449;49.374;8.584;2024-03-22T07:23:13;10.90;;;5.32;;
24485;SDS011;13449;49.374;8.584;2024-03-22T07:25:39;12.57;;;5.78;;
24485;SDS011;13449;49.374;8.584;2024-03-22T07:28:07;12.48;;;6.18;;
24485;SDS011;13449;49.374;8.584;2024-03-22T07:30:33;8.77;;;5.38;;
24485;SDS011;13449;49.374;8.584;2024-03-22T07:33:00;12.40;;;5.32;;
24485;SDS011;13449;49.374;8.584;2024-03-22T07:35:29;9.82;;;5.22;;
24485;SDS011;13449;49.374;8.584;2024-03-22T07:37:54;16.50;;;5.85;;
24485;SDS011;13449;49.374;8.584;2024-03-22T07:40:20;16.00;;;6.07;;
24485;SDS011;13449;49.374;8.584;2024-03-22T07:42:46;7.78;;;5.07;;
24485;SDS011;13449;49.374;8.584;2024-03-22T07:45:11;11.90;;;5.80;;
24485;SDS011;13449;49.374;8.584;2024-03-22T07:47:37;7.43;;;4.78;;
24485;SDS011;13449;49.374;8.584;2024-03-22T07:50:04;7.07;;;4.38;;
24485;SDS011;13449;49.374;8.584;2024-03-22T07:52:30;9.38;;;4.90;;
24485;SDS011;13449;49.374;8.584;2024-03-22T07:54:55;9.80;;;4.78;;
24485;SDS011;13449;49.374;8.584;2024-03-22T07:57:28;6.55;;;4.50;;
24485;SDS011;13449;49.374;8.584;2024-03-22T07:59:56;8.07;;;4.07;;
24485;SDS011;13449;49.374;8.584;2024-03-22T08:02:23;6.68;;;4.05;;
24485;SDS011;13449;49.374;8.584;2024-03-22T08:04:49;7.15;;;4.30;;
24485;SDS011;13449;49.374;8.584;2024-03-22T08:07:16;7.40;;;4.25;;
24485;SDS011;13449;49.374;8.584;2024-03-22T08:09:42;5.65;;;4.03;;
24485;SDS011;13449;49.374;8.584;2024-03-22T08:12:08;5.28;;;4.03;;
24485;SDS011;13449;49.374;8.584;2024-03-22T08:14:34;8.77;;;4.85;;
24485;SDS011;13449;49.374;8.584;2024-03-22T08:17:00;8.73;;;3.72;;
24485;SDS011;13449;49.374;8.584;2024-03-22T08:19:28;8.23;;;3.83;;
24485;SDS011;13449;49.374;8.584;2024-03-22T08:21:54;7.07;;;3.50;;
24485;SDS011;13449;49.374;8.584;2024-03-22T08:24:21;5.75;;;3.90;;
24485;SDS011;13449;49.374;8.584;2024-03-22T08:26:46;6.53;;;3.55;;
24485;SDS011;13449;49.374;8.584;2024-03-22T08:29:13;4.47;;;3.38;;
24485;SDS011;13449;49.374;8.584;2024-03-22T08:31:40;5.88;;;3.28;;
24485;SDS011;13449;49.374;8.584;2024-03-22T08:34:05;3.88;;;2.08;;
24485;SDS011;13449;49.374;8.584;2024-03-22T08:36:31;5.90;;;2.50;;
24485;SDS011;13449;49.374;8.584;2024-03-22T08:38:56;4.25;;;2.75;;
24485;SDS011;13449;49.374;8.584;2024-03-22T08:41:24;5.18;;;3.10;;
24485;SDS011;13449;49.374;8.584;2024-03-22T08:43:50;4.72;;;3.15;;
24485;SDS011;13449;49.374;8.584;2024-03-22T08:46:16;8.15;;;2.90;;
24485;SDS011;13449;49.374;8.584;2024-03-22T08:48:41;4.72;;;3.47;;
24485;SDS011;13449;49.374;8.584;2024-03-22T08:51:10;4.05;;;3.03;;
24485;SDS011;13449;49.374;8.584;2024-03-22T08:53:35;6.30;;;3.10;;
24485;SDS011;13449;49.374;8.584;2024-03-22T08:56:01;7.22;;;3.10;;
24485;SDS011;13449;49.374;8.584;2024-03-22T08:58:30;6.72;;;3.50;;
24485;SDS011;13449;49.374;8.584;2024-03-22T09:00:56;5.25;;;3.42;;
24485;SDS011;13449;49.374;8.584;2024-03-22T09:03:22;3.90;;;3.00;;
24485;SDS011;13449;49.374;8.584;2024-03-22T09:05:47;5.45;;;3.42;;
24485;SDS011;13449;49.374;8.584;2024-03-22T09:08:13;7.60;;;3.70;;
24485;SDS011;13449;49.374;8.584;2024-03-22T09:10:39;7.30;;;3.60;;
24485;SDS011;13449;49.374;8.584;2024-03-22T09:13:06;6.28;;;3.17;;
24485;SDS011;13449;49.374;8.584;2024-03-22T09:15:33;6.40;;;3.63;;
24485;SDS011;13449;49.374;8.584;2024-03-22T09:17:58;5.88;;;3.70;;
24485;SDS011;13449;49.374;8.584;2024-03-22T09:20:24;13.32;;;3.90;;
24485;SDS011;13449;49.374;8.584;2024-03-22T09:22:49;5.45;;;3.70;;
24485;SDS011;13449;49.374;8.584;2024-03-22T09:25:15;4.80;;;4.00;;
24485;SDS011;13449;49.374;8.584;2024-03-22T09:27:41;6.18;;;3.60;;
24485;SDS011;13449;49.374;8.584;2024-03-22T09:30:07;6.97;;;3.80;;
24485;SDS011;13449;49.374;8.584;2024-03-22T09:32:33;6.30;;;4.25;;
24485;SDS011;13449;49.374;8.584;2024-03-22T09:34:58;6.63;;;4.07;;
24485;SDS011;13449;49.374;8.584;2024-03-22T09:37:24;7.35;;;4.13;;
24485;SDS011;13449;49.374;8.584;2024-03-22T09:39:49;6.55;;;4.30;;
24485;SDS011;13449;49.374;8.584;2024-03-22T09:42:18;8.35;;;4.63;;
24485;SDS011;13449;49.374;8.584;2024-03-22T09:44:47;6.80;;;4.22;;
24485;SDS011;13449;49.374;8.584;2024-03-22T09:47:16;10.00;;;4.30;;
24485;SDS011;13449;49.374;8.584;2024-03-22T09:49:43;9.25;;;3.78;;
24485;SDS011;13449;49.374;8.584;2024-03-22T09:52:12;6.82;;;3.80;;
24485;SDS011;13449;49.374;8.584;2024-03-22T09:54:40;8.98;;;4.68;;
24485;SDS011;13449;49.374;8.584;2024-03-22T09:57:08;16.13;;;4.22;;
24485;SDS011;13449;49.374;8.584;2024-03-22T10:02:04;7.32;;;3.60;;
24485;SDS011;13449;49.374;8.584;2024-03-22T10:04:34;8.73;;;4.68;;
24485;SDS011;13449;49.374;8.584;2024-03-22T10:07:02;9.60;;;3.80;;
24485;SDS011;13449;49.374;8.584;2024-03-22T10:09:28;8.38;;;4.05;;
24485;SDS011;13449;49.374;8.584;2024-03-22T10:11:55;6.13;;;3.50;;
24485;SDS011;13449;49.374;8.584;2024-03-22T10:14:22;9.40;;;3.72;;
24485;SDS011;13449;49.374;8.584;2024-03-22T10:16:50;7.70;;;3.08;;
24485;SDS011;13449;49.374;8.584;2024-03-22T10:19:19;9.55;;;3.10;;
24485;SDS011;13449;49.374;8.584;2024-03-22T10:22:00;5.97;;;3.30;;
24485;SDS011;13449;49.374;8.584;2024-03-22T10:24:30;7.13;;;3.47;;
24485;SDS011;13449;49.374;8.584;2024-03-22T10:26:57;7.70;;;4.40;;
24485;SDS011;13449;49.374;8.584;2024-03-22T10:29:23;10.10;;;3.70;;
24485;SDS011;13449;49.374;8.584;2024-03-22T10:31:54;9.85;;;3.50;;
24485;SDS011;13449;49.374;8.584;2024-03-22T10:34:21;5.35;;;3.75;;
24485;SDS011;13449;49.374;8.584;2024-03-22T10:36:47;9.57;;;4.15;;
24485;SDS011;13449;49.374;8.584;2024-03-22T10:39:16;4.55;;;3.38;;
24485;SDS011;13449;49.374;8.584;2024-03-22T10:41:46;5.68;;;3.70;;
24485;SDS011;13449;49.374;8.584;2024-03-22T10:44:14;6.97;;;4.13;;
24485;SDS011;13449;49.374;8.584;2024-03-22T10:49:17;10.13;;;3.60;;
24485;SDS011;13449;49.374;8.584;2024-03-22T10:51:46;7.40;;;3.25;;
24485;SDS011;13449;49.374;8.584;2024-03-22T10:54:19;15.27;;;3.30;;
24485;SDS011;13449;49.374;8.584;2024-03-22T10:56:47;5.65;;;3.65;;
24485;SDS011;13449;49.374;8.584;2024-03-22T10:59:14;9.43;;;4.35;;
24485;SDS011;13449;49.374;8.584;2024-03-22T11:01:45;9.60;;;4.30;;
24485;SDS011;13449;49.374;8.584;2024-03-22T11:04:14;7.75;;;4.07;;
24485;SDS011;13449;49.374;8.584;2024-03-22T11:06:46;5.63;;;3.20;;
24485;SDS011;13449;49.374;8.584;2024-03-22T11:09:18;5.10;;;2.65;;
24485;SDS011;13449;49.374;8.584;2024-03-22T11:11:46;5.45;;;3.00;;
24485;SDS011;13449;49.374;8.584;2024-03-22T11:14:12;5.65;;;2.80;;
24485;SDS011;13449;49.374;8.584;2024-03-22T11:16:38;5.60;;;2.65;;
24485;SDS011;13449;49.374;8.584;2024-03-22T11:19:07;3.70;;;2.58;;
24485;SDS011;13449;49.374;8.584;2024-03-22T11:21:33;8.35;;;3.25;;
24485;SDS011;13449;49.374;8.584;2024-03-22T11:24:02;9.18;;;2.85;;
24485;SDS011;13449;49.374;8.584;2024-03-22T11:26:27;4.40;;;2.90;;
24485;SDS011;13449;49.374;8.584;2024-03-22T11:28:53;5.40;;;2.67;;
24485;SDS011;13449;49.374;8.584;2024-03-22T11:31:20;6.47;;;3.10;;
24485;SDS011;13449;49.374;8.584;2024-03-22T11:33:50;3.38;;;2.30;;
24485;SDS011;13449;49.374;8.584;2024-03-22T11:36:19;5.05;;;2.78;;
24485;SDS011;13449;49.374;8.584;2024-03-22T11:38:46;9.70;;;2.92;;
24485;SDS011;13449;49.374;8.584;2024-03-22T11:41:14;3.63;;;2.42;;
24485;SDS011;13449;49.374;8.584;2024-03-22T11:43:43;6.15;;;2.53;;
24485;SDS011;13449;49.374;8.584;2024-03-22T11:46:11;7.72;;;3.05;;
24485;SDS011;13449;49.374;8.584;2024-03-22T11:48:40;5.53;;;2.33;;
24485;SDS011;13449;49.374;8.584;2024-03-22T11:51:11;7.78;;;2.78;;
24485;SDS011;13449;49.374;8.584;2024-03-22T11:53:39;4.85;;;2.58;;
24485;SDS011;13449;49.374;8.584;2024-03-22T11:56:17;5.15;;;2.60;;
24485;SDS011;13449;49.374;8.584;2024-03-22T11:58:45;4.88;;;2.90;;
24485;SDS011;13449;49.374;8.584;2024-03-22T12:01:12;5.07;;;2.50;;
24485;SDS011;13449;49.374;8.584;2024-03-22T12:03:39;4.35;;;2.75;;
24485;SDS011;13449;49.374;8.584;2024-03-22T12:06:05;4.40;;;3.10;;
24485;SDS011;13449;49.374;8.584;2024-03-22T12:08:31;7.53;;;2.33;;
24485;SDS011;13449;49.374;8.584;2024-03-22T12:10:56;4.38;;;2.75;;
24485;SDS011;13449;49.374;8.584;2024-03-22T12:13:22;4.85;;;2.40;;
24485;SDS011;13449;49.374;8.584;2024-03-22T12:15:48;6.50;;;2.83;;
24485;SDS011;13449;49.374;8.584;2024-03-22T12:18:14;5.68;;;2.53;;
24485;SDS011;13449;49.374;8.584;2024-03-22T12:20:39;9.15;;;5.03;;
24485;SDS011;13449;49.374;8.584;2024-03-22T12:23:05;7.15;;;2.80;;
24485;SDS011;13449;49.374;8.584;2024-03-22T12:25:31;7.68;;;2.80;;
24485;SDS011;13449;49.374;8.584;2024-03-22T12:27:59;9.13;;;3.03;;
24485;SDS011;13449;49.374;8.584;2024-03-22T12:30:24;6.32;;;3.15;;
24485;SDS011;13449;49.374;8.584;2024-03-22T12:32:51;30.15;;;6.10;;
24485;SDS011;13449;49.374;8.584;2024-03-22T12:35:21;10.85;;;3.15;;
24485;SDS011;13449;49.374;8.584;2024-03-22T12:37:47;2.38;;;2.17;;
24485;SDS011;13449;49.374;8.584;2024-03-22T12:40:12;7.75;;;3.72;;
24485;SDS011;13449;49.374;8.584;2024-03-22T12:42:39;7.00;;;4.55;;
24485;SDS011;13449;49.374;8.584;2024-03-22T12:45:05;5.28;;;3.42;;
24485;SDS011;13449;49.374;8.584;2024-03-22T12:47:33;5.47;;;3.13;;
24485;SDS011;13449;49.374;8.584;2024-03-22T12:49:59;7.35;;;3.55;;
24485;SDS011;13449;49.374;8.584;2024-03-22T12:52:25;8.45;;;3.95;;
24485;SDS011;13449;49.374;8.584;2024-03-22T12:54:50;8.98;;;3.22;;
24485;SDS011;13449;49.374;8.584;2024-03-22T12:57:16;7.60;;;3.05;;
24485;SDS011;13449;49.374;8.584;2024-03-22T12:59:41;6.55;;;2.75;;
24485;SDS011;13449;49.374;8.584;2024-03-22T13:02:07;4.38;;;2.50;;
24485;SDS011;13449;49.374;8.584;2024-03-22T13:04:34;7.15;;;3.30;;
24485;SDS011;13449;49.374;8.584;2024-03-22T13:07:00;7.57;;;2.90;;
24485;SDS011;13449;49.374;8.584;2024-03-22T13:09:28;10.90;;;3.67;;
24485;SDS011;13449;49.374;8.584;2024-03-22T13:11:54;7.07;;;3.97;;
24485;SDS011;13449;49.374;8.584;2024-03-22T13:14:20;9.75;;;3.20;;
24485;SDS011;13449;49.374;8.584;2024-03-22T13:16:46;8.30;;;2.90;;
24485;SDS011;13449;49.374;8.584;2024-03-22T13:19:11;12.25;;;2.85;;
24485;SDS011;13449;49.374;8.584;2024-03-22T13:21:38;6.90;;;3.08;;
24485;SDS011;13449;49.374;8.584;2024-03-22T13:24:04;2.90;;;2.05;;
24485;SDS011;13449;49.374;8.584;2024-03-22T13:26:30;5.00;;;2.35;;
24485;SDS011;13449;49.374;8.584;2024-03-22T13:28:56;3.85;;;2.70;;
24485;SDS011;13449;49.374;8.584;2024-03-22T13:31:23;4.15;;;2.85;;
24485;SDS011;13449;49.374;8.584;2024-03-22T13:33:48;5.00;;;2.72;;
24485;SDS011;13449;49.374;8.584;2024-03-22T13:36:14;8.00;;;2.80;;
24485;SDS011;13449;49.374;8.584;2024-03-22T13:38:39;4.53;;;2.13;;
24485;SDS011;13449;49.374;8.584;2024-03-22T13:41:05;4.20;;;2.33;;
24485;SDS011;13449;49.374;8.584;2024-03-22T13:43:31;4.85;;;1.90;;
24485;SDS011;13449;49.374;8.584;2024-03-22T13:45:57;2.80;;;2.10;;
24485;SDS011;13449;49.374;8.584;2024-03-22T13:48:23;4.20;;;2.22;;
24485;SDS011;13449;49.374;8.584;2024-03-22T13:50:50;7.18;;;2.03;;
24485;SDS011;13449;49.374;8.584;2024-03-22T13:53:17;6.82;;;3.05;;
24485;SDS011;13449;49.374;8.584;2024-03-22T13:55:49;3.67;;;2.40;;
24485;SDS011;13449;49.374;8.584;2024-03-22T13:58:15;8.93;;;2.55;;
24485;SDS011;13449;49.374;8.584;2024-03-22T14:00:42;3.13;;;2.13;;
24485;SDS011;13449;49.374;8.584;2024-03-22T14:03:08;3.72;;;2.17;;
24485;SDS011;13449;49.374;8.584;2024-03-22T14:05:34;4.95;;;1.92;;
24485;SDS011;13449;49.374;8.584;2024-03-22T14:08:02;9.85;;;1.95;;
24485;SDS011;13449;49.374;8.584;2024-03-22T14:10:29;4.65;;;1.90;;
24485;SDS011;13449;49.374;8.584;2024-03-22T14:13:01;7.50;;;2.42;;
24485;SDS011;13449;49.374;8.584;2024-03-22T14:15:30;3.50;;;2.00;;
24485;SDS011;13449;49.374;8.584;2024-03-22T14:18:00;6.57;;;2.13;;
24485;SDS011;13449;49.374;8.584;2024-03-22T14:20:25;4.38;;;1.80;;
24485;SDS011;13449;49.374;8.584;2024-03-22T14:22:54;4.45;;;2.28;;
24485;SDS011;13449;49.374;8.584;2024-03-22T14:25:20;4.30;;;2.40;;
24485;SDS011;13449;49.374;8.584;2024-03-22T14:27:46;5.38;;;2.22;;
24485;SDS011;13449;49.374;8.584;2024-03-22T14:30:13;5.30;;;1.50;;
24485;SDS011;13449;49.374;8.584;2024-03-22T14:32:40;4.45;;;2.08;;
24485;SDS011;13449;49.374;8.584;2024-03-22T14:35:08;10.38;;;2.38;;
24485;SDS011;13449;49.374;8.584;2024-03-22T14:37:35;3.75;;;2.22;;
24485;SDS011;13449;49.374;8.584;2024-03-22T14:40:05;4.60;;;2.20;;
24485;SDS011;13449;49.374;8.584;2024-03-22T14:42:35;2.58;;;2.08;;
24485;SDS011;13449;49.374;8.584;2024-03-22T14:45:04;6.55;;;1.92;;
24485;SDS011;13449;49.374;8.584;2024-03-22T14:47:30;11.90;;;1.55;;